createdAt,value
2022-08-03T00:04:53.727Z,8.77
2022-08-03T00:09:55.599Z,7.85
2022-08-03T00:14:57.440Z,7.75
2022-08-03T00:19:59.337Z,7.65
2022-08-03T00:25:01.307Z,6.90
2022-08-03T00:30:03.673Z,7.63
2022-08-03T00:35:07.971Z,7.93
2022-08-03T00:40:13.071Z,8.77
2022-08-03T00:45:14.933Z,10.70
2022-08-03T00:50:18.507Z,9.95
2022-08-03T00:55:21.278Z,8.95
2022-08-03T01:00:25.706Z,9.80
2022-08-03T01:05:28.227Z,9.07
2022-08-03T01:10:39.148Z,9.18
2022-08-03T01:15:54.710Z,8.50
2022-08-03T01:20:59.629Z,8.85
2022-08-03T01:26:56.994Z,8.10
2022-08-03T01:32:57.983Z,8.45
2022-08-03T01:37:38.898Z,10.07
2022-08-03T01:42:41.763Z,9.68
2022-08-03T01:47:45.814Z,9.55
2022-08-03T01:52:48.291Z,9.27
2022-08-03T01:58:05.336Z,8.15
2022-08-03T02:03:09.917Z,7.90
2022-08-03T02:08:14.342Z,9.13
2022-08-03T02:13:18.127Z,8.43
2022-08-03T02:18:21.234Z,7.75
2022-08-03T02:23:23.187Z,7.78
2022-08-03T02:28:32.221Z,8.30
2022-08-03T02:33:41.445Z,8.73
2022-08-03T02:38:44.540Z,8.15
2022-08-03T02:44:05.946Z,7.70
2022-08-03T02:49:40.830Z,8.23
2022-08-03T02:54:34.560Z,9.15
2022-08-03T02:59:37.687Z,9.02
2022-08-03T03:04:43.165Z,8.55
2022-08-03T03:10:04.990Z,8.20
2022-08-03T03:15:07.183Z,8.65
2022-08-03T03:20:09.568Z,8.60
2022-08-03T03:25:11.935Z,9.05
2022-08-03T03:30:13.951Z,9.65
2022-08-03T03:35:16.767Z,8.63
2022-08-03T03:40:19.564Z,8.70
2022-08-03T03:45:24.349Z,9.90
2022-08-03T03:50:27.545Z,8.85
2022-08-03T03:55:30.514Z,9.50
2022-08-03T04:00:32.480Z,9.50
2022-08-03T04:05:52.823Z,8.38
2022-08-03T04:11:12.875Z,8.60
2022-08-03T04:16:18.134Z,8.73
2022-08-03T04:21:23.625Z,8.75
2022-08-03T04:26:29.048Z,9.70
2022-08-03T04:31:30.906Z,9.32
2022-08-03T04:36:37.370Z,9.98
2022-08-03T04:42:07.360Z,9.88
2022-08-03T04:47:02.855Z,9.30
2022-08-03T04:52:07.405Z,9.50
2022-08-03T04:57:10.618Z,9.27
2022-08-03T05:02:24.470Z,8.80
2022-08-03T05:07:26.371Z,10.05
2022-08-03T05:12:38.153Z,10.35
2022-08-03T05:17:40.235Z,10.07
2022-08-03T05:22:42.036Z,10.20
2022-08-03T05:27:43.844Z,10.38
2022-08-03T05:32:45.838Z,9.55
2022-08-03T05:37:54.593Z,9.75
2022-08-03T05:42:57.194Z,8.73
2022-08-03T05:48:00.048Z,8.98
2022-08-03T05:53:01.976Z,8.02
2022-08-03T05:58:03.997Z,7.32
2022-08-03T06:03:06.252Z,7.45
2022-08-03T06:08:08.129Z,7.10
2022-08-03T06:13:10.081Z,7.15
2022-08-03T06:18:11.924Z,7.05
2022-08-03T06:23:16.085Z,6.82
2022-08-03T06:28:51.704Z,5.70
2022-08-03T06:34:31.653Z,5.93
2022-08-03T06:39:04.398Z,5.25
2022-08-03T06:44:06.200Z,5.07
2022-08-03T06:49:08.337Z,4.72
2022-08-03T06:54:10.372Z,4.93
2022-08-03T07:00:08.126Z,5.28
2022-08-03T07:04:34.062Z,5.10
2022-08-03T07:09:35.914Z,4.10
2022-08-03T07:14:40.210Z,4.15
2022-08-03T07:19:42.018Z,3.97
2022-08-03T07:24:43.992Z,4.20
2022-08-03T07:29:45.807Z,3.63
2022-08-03T07:34:47.636Z,3.60
2022-08-03T07:39:49.515Z,3.30
2022-08-03T07:44:51.392Z,2.95
2022-08-03T07:49:53.218Z,3.05
2022-08-03T07:54:55.168Z,2.90
2022-08-03T08:00:01.803Z,3.00
2022-08-03T08:05:13.920Z,3.28
2022-08-03T08:10:15.904Z,3.00
2022-08-03T08:15:17.813Z,2.80
2022-08-03T08:20:28.086Z,2.55
2022-08-03T08:25:33.944Z,2.95
2022-08-03T08:30:35.913Z,3.28
2022-08-03T08:35:38.997Z,2.80
2022-08-03T08:40:40.938Z,2.65
2022-08-03T08:45:42.882Z,2.60
2022-08-03T08:50:47.696Z,3.10
2022-08-03T08:55:56.604Z,2.78
2022-08-03T09:01:01.912Z,2.83
2022-08-03T09:06:04.460Z,2.53
2022-08-03T09:11:07.668Z,2.75
2022-08-03T09:16:12.131Z,2.33
2022-08-03T09:21:32.019Z,2.85
2022-08-03T09:26:36.325Z,2.30
2022-08-03T09:31:43.310Z,2.50
2022-08-03T09:36:50.851Z,2.60
2022-08-03T09:42:14.767Z,2.47
2022-08-03T09:47:28.824Z,2.50
2022-08-03T09:52:49.125Z,2.30
2022-08-03T09:57:52.403Z,2.22
2022-08-03T10:03:05.582Z,2.45
2022-08-03T10:08:15.523Z,2.22
2022-08-03T10:13:18.965Z,2.33
2022-08-03T10:18:20.760Z,2.30
2022-08-03T10:23:23.123Z,2.28
2022-08-03T10:28:25.448Z,2.10
2022-08-03T10:33:51.416Z,2.30
2022-08-03T10:38:57.137Z,2.40
2022-08-03T10:43:59.813Z,2.30
2022-08-03T10:49:03.165Z,2.10
2022-08-03T10:54:05.241Z,2.17
2022-08-03T10:59:07.131Z,2.20
2022-08-03T11:04:18.540Z,2.00
2022-08-03T11:09:20.466Z,2.22
2022-08-03T11:14:22.659Z,1.95
2022-08-03T11:19:57.662Z,1.98
2022-08-03T11:25:00.889Z,2.20
2022-08-03T11:30:08.850Z,1.90
2022-08-03T11:35:27.036Z,2.00
2022-08-03T11:40:48.962Z,1.60
2022-08-03T11:46:02.103Z,1.80
2022-08-03T11:51:18.709Z,1.65
2022-08-03T11:56:20.670Z,1.60
2022-08-03T12:01:23.999Z,1.50
2022-08-03T12:06:25.799Z,1.52
2022-08-03T12:11:29.263Z,1.65
2022-08-03T12:16:31.322Z,1.60
2022-08-03T12:21:35.340Z,1.85
2022-08-03T12:26:58.458Z,1.70
2022-08-03T12:32:01.534Z,1.60
2022-08-03T12:37:19.292Z,1.50
2022-08-03T12:42:31.662Z,1.40
2022-08-03T12:47:53.622Z,1.77
2022-08-03T12:52:57.211Z,1.40
2022-08-03T12:58:03.411Z,1.67
2022-08-03T13:08:29.437Z,1.50
2022-08-03T13:13:41.046Z,1.50
2022-08-03T13:18:43.029Z,1.30
2022-08-03T13:23:46.851Z,1.60
2022-08-03T13:28:48.840Z,1.45
2022-08-03T13:33:50.688Z,1.48
2022-08-03T13:38:52.483Z,1.60
2022-08-03T13:44:25.157Z,1.23
2022-08-03T13:49:20.597Z,1.80
2022-08-03T13:54:22.824Z,1.42
2022-08-03T13:59:26.067Z,1.60
2022-08-03T14:04:27.936Z,1.58
2022-08-03T14:09:29.783Z,1.42
2022-08-03T14:14:31.600Z,1.40
2022-08-03T14:19:33.458Z,1.58
2022-08-03T14:24:54.656Z,1.58
2022-08-03T14:29:59.839Z,1.70
2022-08-03T14:35:01.641Z,1.50
2022-08-03T14:40:04.687Z,1.73
2022-08-03T14:45:09.404Z,1.60
2022-08-03T14:50:37.582Z,1.48
2022-08-03T14:55:50.296Z,1.27
2022-08-03T15:00:55.464Z,1.50
2022-08-03T15:05:57.562Z,1.40
2022-08-03T15:10:59.568Z,1.27
2022-08-03T15:16:01.440Z,1.40
2022-08-03T15:21:03.288Z,1.33
2022-08-03T15:26:30.404Z,1.20
2022-08-03T15:31:27.015Z,1.55
2022-08-03T15:36:28.800Z,1.80
2022-08-03T15:41:30.914Z,1.90
2022-08-03T15:46:32.773Z,2.40
2022-08-03T15:51:34.617Z,2.45
2022-08-03T15:56:38.687Z,2.45
2022-08-03T16:01:40.867Z,2.40
2022-08-03T16:06:42.815Z,2.90
2022-08-03T16:11:44.694Z,2.35
2022-08-03T16:16:46.671Z,2.30
2022-08-03T16:21:49.988Z,2.67
2022-08-03T16:26:52.107Z,2.47
2022-08-03T16:31:54.172Z,2.72
2022-08-03T16:36:55.997Z,2.85
2022-08-03T16:42:00.608Z,2.53
2022-08-03T16:47:03.876Z,2.47
2022-08-03T16:52:07.171Z,2.75
2022-08-03T16:57:09.162Z,2.80
2022-08-03T17:02:25.987Z,2.78
2022-08-03T17:07:30.342Z,2.55
2022-08-03T17:12:32.335Z,3.90
2022-08-03T17:17:37.641Z,3.00
2022-08-03T17:23:34.577Z,2.75
2022-08-03T17:28:52.165Z,2.65
2022-08-03T17:34:01.997Z,2.70
2022-08-03T17:39:06.774Z,2.88
2022-08-03T17:44:15.491Z,2.92
2022-08-03T17:49:31.999Z,3.08
2022-08-03T17:55:54.750Z,3.38
2022-08-03T18:00:43.274Z,3.00
2022-08-03T18:06:11.341Z,2.90
2022-08-03T18:11:14.798Z,2.80
2022-08-03T18:16:38.948Z,2.88
2022-08-03T18:22:02.782Z,2.65
2022-08-03T18:27:06.791Z,2.70
2022-08-03T18:32:25.188Z,2.97
2022-08-03T18:37:28.198Z,3.08
2022-08-03T18:42:32.257Z,2.40
2022-08-03T18:47:58.842Z,2.90
2022-08-03T18:53:15.638Z,3.20
2022-08-03T18:59:02.524Z,2.75
2022-08-03T19:04:19.231Z,4.05
2022-08-03T19:09:48.503Z,3.60
2022-08-03T19:14:56.515Z,3.72
2022-08-03T19:19:58.990Z,3.40
2022-08-03T19:25:05.938Z,4.20
2022-08-03T19:30:21.845Z,3.97
2022-08-03T19:35:46.961Z,3.95
2022-08-03T19:40:57.777Z,4.30
2022-08-03T19:46:07.312Z,3.70
2022-08-03T19:56:34.853Z,3.55
2022-08-03T20:01:50.919Z,3.58
2022-08-03T20:07:00.114Z,3.78
2022-08-03T20:12:02.080Z,4.30
2022-08-03T20:17:05.672Z,5.30
2022-08-03T20:22:14.516Z,5.50
2022-08-03T20:27:20.034Z,5.18
2022-08-03T20:32:24.657Z,5.35
2022-08-03T20:37:26.744Z,5.47
2022-08-03T20:42:31.915Z,6.65
2022-08-03T20:47:39.132Z,8.32
2022-08-03T20:52:52.784Z,6.97
2022-08-03T20:57:56.670Z,6.80
2022-08-03T21:03:02.136Z,8.00
2022-08-03T21:08:07.670Z,9.32
2022-08-03T21:13:09.654Z,3.78
2022-08-03T21:18:23.459Z,10.50
2022-08-03T21:23:39.914Z,8.73
2022-08-03T21:28:50.607Z,6.75
2022-08-03T21:33:54.602Z,6.15
2022-08-03T21:38:58.033Z,6.35
2022-08-03T21:44:01.546Z,6.07
2022-08-03T21:50:07.442Z,5.18
2022-08-03T21:54:37.853Z,5.65
2022-08-03T21:59:46.366Z,6.93
2022-08-03T22:04:53.510Z,6.80
2022-08-03T22:10:00.383Z,7.35
2022-08-03T22:15:05.365Z,6.97
2022-08-03T22:20:10.608Z,7.90
2022-08-03T22:25:15.863Z,7.10
2022-08-03T22:30:19.428Z,6.75
2022-08-03T22:35:24.054Z,7.28
2022-08-03T22:40:27.769Z,6.70
2022-08-03T22:46:08.014Z,7.63
2022-08-03T22:50:51.661Z,7.30
2022-08-03T22:55:54.011Z,6.05
2022-08-03T23:01:01.846Z,6.53
2022-08-03T23:06:04.015Z,8.18
2022-08-03T23:11:10.204Z,8.57
2022-08-03T23:16:13.821Z,7.80
2022-08-03T23:21:17.794Z,7.57
2022-08-03T23:26:40.086Z,7.25
2022-08-03T23:31:44.841Z,6.95
2022-08-03T23:36:49.938Z,6.97
2022-08-03T23:41:53.076Z,6.20
2022-08-03T23:46:54.913Z,6.07
2022-08-03T23:52:08.534Z,6.60
2022-08-03T23:57:13.418Z,6.15
